Time;durP1;ratioP1;P1;durP2;ratioP2;P2;SDS_P1;SDS_P2;PMS_P1;PMS_P2;Temp;Humidity;BMP_temperature;BMP_pressure;BME280_temperature;BME280_humidity;BME280_pressure;Samples;Min_cycle;Max_cycle;Signal;HPM_P1;HPM_P2
2022/12/26 00:02:00;;;;;;;6.77;4.43;;;8.80;99.90;;;9.37;100.00;97930.53;5085003;28;20483;-78
2022/12/26 00:04:29;;;;;;;5.03;3.87;;;8.80;99.90;;;9.40;100.00;97927.59;5084230;28;20842;-78
2022/12/26 00:07:18;;;;;;;9.53;3.87;;;8.90;99.90;;;9.39;100.00;97931.19;5089757;28;20454;-77
2022/12/26 00:09:49;;;;;;;4.47;3.97;;;8.90;99.90;;;9.36;100.00;97936.75;5091040;28;20483;-77
2022/12/26 00:12:19;;;;;;;4.33;3.33;;;8.80;99.90;;;9.35;100.00;97935.13;5090217;28;20456;-77
2022/12/26 00:14:48;;;;;;;10.30;3.20;;;8.70;99.90;;;9.33;100.00;97947.56;5089723;28;20946;-77
2022/12/26 00:17:20;;;;;;;5.03;4.20;;;8.70;99.90;;;9.28;100.00;97936.84;5090341;28;20471;-77
2022/12/26 00:19:50;;;;;;;6.77;4.33;;;8.60;99.90;;;9.28;100.00;97931.63;5091281;28;20486;-77
2022/12/26 00:22:20;;;;;;;5.60;3.87;;;8.70;99.90;;;9.24;100.00;97927.75;5090882;28;20463;-77
2022/12/26 00:24:50;;;;;;;5.83;2.97;;;8.70;99.90;;;9.24;100.00;97917.31;5089739;28;20450;-77
2022/12/26 00:27:21;;;;;;;5.80;4.10;;;8.70;99.90;;;9.26;100.00;97904.94;5092028;28;20469;-77
2022/12/26 00:29:51;;;;;;;13.43;4.00;;;8.70;99.90;;;9.28;100.00;97923.00;5092836;28;20463;-77
2022/12/26 00:32:22;;;;;;;7.03;3.33;;;8.70;99.90;;;9.32;100.00;97924.25;5085159;28;20469;-77
2022/12/26 00:34:52;;;;;;;8.30;3.57;;;8.80;99.90;;;9.32;100.00;97924.25;5094522;28;20467;-77
2022/12/26 00:37:21;;;;;;;11.50;3.50;;;8.80;99.90;;;9.23;100.00;97931.38;5089216;28;20646;-77
2022/12/26 00:39:51;;;;;;;8.13;3.40;;;8.70;99.90;;;9.23;100.00;97927.97;5089789;28;20549;-77
2022/12/26 00:42:21;;;;;;;12.17;3.90;;;8.60;99.90;;;9.23;100.00;97931.38;5089166;28;20462;-77
2022/12/26 00:44:50;;;;;;;6.10;3.60;;;8.70;99.90;;;9.23;100.00;97930.56;5090782;28;20566;-77
2022/12/26 00:47:21;;;;;;;11.30;3.37;;;8.60;99.90;;;9.19;100.00;97929.31;5086545;28;20547;-77
2022/12/26 00:49:51;;;;;;;6.60;3.50;;;8.60;99.90;;;9.19;100.00;97929.31;5089472;28;20506;-77
2022/12/26 00:52:41;;;;;;;11.23;4.83;;;8.50;99.90;;;9.15;100.00;97922.81;5094088;28;20471;-77
2022/12/26 00:55:11;;;;;;;6.30;3.50;;;8.50;99.90;;;9.15;100.00;97922.81;5089869;28;20467;-77
2022/12/26 00:57:41;;;;;;;12.33;3.60;;;8.50;99.90;;;9.12;100.00;97923.19;5084052;28;20497;-77
2022/12/26 01:00:15;;;;;;;10.03;3.80;;;8.60;99.90;;;9.11;100.00;97927.59;5091484;28;20493;-77
2022/12/26 01:02:45;;;;;;;8.13;3.63;;;8.50;99.90;;;9.11;100.00;97935.44;5093161;28;20508;-77
2022/12/26 01:05:16;;;;;;;5.17;3.30;;;8.50;99.90;;;9.08;100.00;97943.63;5091112;28;20471;-77
2022/12/26 01:07:46;;;;;;;7.83;3.80;;;8.40;99.90;;;9.06;100.00;97956.00;5088820;28;20508;-77
2022/12/26 01:10:36;;;;;;;5.07;2.87;;;8.40;99.90;;;9.07;100.00;97944.59;5092928;28;20454;-77
2022/12/26 01:13:06;;;;;;;6.37;3.63;;;8.50;99.90;;;9.08;100.00;97948.81;5090763;28;20499;-77
2022/12/26 01:15:35;;;;;;;14.07;3.57;;;8.50;99.90;;;9.10;100.00;97963.31;5087983;28;20524;-77
2022/12/26 01:18:06;;;;;;;11.00;3.90;;;8.40;99.90;;;9.11;100.00;97948.47;5091314;28;21283;-77
2022/12/26 01:20:37;;;;;;;7.30;3.47;;;8.50;99.90;;;9.09;100.00;97946.03;5090139;28;20544;-77
2022/12/26 01:23:07;;;;;;;15.33;3.53;;;8.50;99.90;;;9.08;100.00;97948.81;5090688;28;20550;-77
2022/12/26 01:25:36;;;;;;;10.03;3.87;;;8.40;99.90;;;9.05;100.00;97951.81;5090881;28;20511;-77
2022/12/26 01:28:25;;;;;;;6.27;3.10;;;8.40;99.90;;;9.02;100.00;97954.78;5087422;28;20443;-77
2022/12/26 01:30:55;;;;;;;3.87;3.00;;;8.30;99.90;;;9.05;100.00;97967.44;5089515;28;20516;-77
2022/12/26 01:33:25;;;;;;;13.20;3.50;;;8.40;99.90;;;9.05;100.00;97960.44;5092226;28;20467;-77
2022/12/26 01:35:55;;;;;;;5.43;2.70;;;8.40;99.90;;;9.07;100.00;97957.63;5089936;28;20459;-77
2022/12/26 01:38:24;;;;;;;4.07;3.17;;;8.40;99.90;;;9.08;100.00;97959.25;5090343;28;20903;-77
2022/12/26 01:41:15;;;;;;;3.43;2.90;;;8.50;99.90;;;9.05;100.00;97970.88;5091506;28;20503;-77
2022/12/26 01:43:56;;;;;;;3.97;3.00;;;8.40;99.90;;;9.07;100.00;97955.03;5093870;28;20864;-78
2022/12/26 01:46:35;;;;;;;3.63;2.47;;;8.40;99.90;;;9.11;100.00;97953.69;5094221;28;20528;-77
2022/12/26 01:49:15;;;;;;;14.77;3.00;;;8.50;99.90;;;9.10;100.00;97968.53;5094597;28;22591;-77
2022/12/26 01:51:50;;;;;;;5.30;3.67;;;8.50;99.90;;;9.11;100.00;97982.38;5092854;28;20470;-77
2022/12/26 01:54:22;;;;;;;9.37;3.07;;;8.60;99.90;;;9.09;100.00;97986.97;5088728;28;20828;-78
2022/12/26 01:57:17;;;;;;;4.80;2.50;;;8.50;99.90;;;9.09;100.00;97997.41;5089589;28;20543;-77
2022/12/26 01:59:50;;;;;;;4.93;3.50;;;8.50;99.90;;;9.10;100.00;97986.78;5086445;28;20459;-77
2022/12/26 02:02:21;;;;;;;5.60;2.90;;;8.50;99.90;;;9.12;100.00;97986.63;5094691;28;20483;-78
2022/12/26 02:07:46;;;;;;;3.63;2.70;;;8.60;99.90;;;9.19;100.00;97997.94;5092719;28;20531;-77
2022/12/26 02:10:21;;;;;;;7.80;3.40;;;8.70;99.90;;;9.22;100.00;97996.78;5091252;28;20462;-77
2022/12/26 02:12:50;;;;;;;4.00;2.70;;;8.70;99.90;;;9.25;100.00;97983.38;5082656;28;21534;-78
2022/12/26 02:15:20;;;;;;;5.50;3.03;;;8.70;99.90;;;9.27;100.00;97986.59;5093065;28;20570;-77
2022/12/26 02:17:49;;;;;;;3.10;2.67;;;8.80;99.90;;;9.30;100.00;97978.44;5091428;28;20471;-77
2022/12/26 02:20:24;;;;;;;4.93;2.73;;;8.80;99.90;;;9.33;100.00;97983.28;5089692;28;20463;-76
2022/12/26 02:23:55;;;;;;;4.00;2.80;;;8.80;99.90;;;9.36;100.00;97983.72;5092104;28;21218;-77
2022/12/26 02:27:21;;;;;;;6.50;2.60;;;8.80;99.90;;;9.39;100.00;97983.38;5092113;28;20943;-77
2022/12/26 02:30:36;;;;;;;5.53;2.90;;;8.90;99.90;;;9.42;100.00;97977.78;5089981;28;20468;-78
2022/12/26 02:33:40;;;;;;;11.00;3.20;;;8.90;99.90;;;9.52;100.00;97977.50;5086860;28;20466;-77
2022/12/26 02:36:57;;;;;;;4.27;2.33;;;9.10;99.90;;;9.62;100.00;97967.59;5091457;28;20454;-77
2022/12/26 02:39:49;;;;;;;6.70;2.80;;;9.20;99.90;;;9.67;100.00;97986.13;5087279;28;21274;-77
2022/12/26 02:42:36;;;;;;;3.97;2.50;;;9.20;99.90;;;9.76;100.00;97973.75;5088269;28;20524;-77
2022/12/26 02:48:20;;;;;;;3.80;2.33;;;9.30;99.90;;;9.81;100.00;97977.47;5089577;28;20843;-77
2022/12/26 03:14:37;;;;;;;5.60;2.00;;;9.60;99.90;;;10.06;100.00;97994.44;5034074;28;20465;-77
2022/12/26 03:17:19;;;;;;;2.27;1.90;;;9.70;99.90;;;10.10;100.00;97981.78;5081631;28;20553;-77
2022/12/26 03:20:02;;;;;;;5.60;2.33;;;9.80;99.90;;;10.11;100.00;97978.19;5095177;28;21049;-77
2022/12/26 03:22:40;;;;;;;6.13;2.33;;;9.70;99.90;;;10.13;100.00;97968.38;5088812;28;21054;-77
2022/12/26 03:28:01;;;;;;;4.43;2.60;;;9.70;99.90;;;10.16;100.00;97969.81;5089795;28;20468;-77
2022/12/26 03:30:48;;;;;;;10.17;2.20;;;9.80;99.90;;;10.17;100.00;97967.00;5091616;28;20459;-77
2022/12/26 03:36:07;;;;;;;5.40;2.40;;;9.80;99.90;;;10.19;100.00;97966.84;5085966;28;20558;-77
2022/12/26 03:38:54;;;;;;;2.40;2.20;;;9.80;99.90;;;10.21;100.00;97964.81;5089372;28;20475;-77
2022/12/26 04:20:00;;;;;;;5.83;2.20;;;10.30;99.90;;;10.54;100.00;97982.44;5092991;28;20467;-77
2022/12/26 04:46:06;;;;;;;3.50;2.30;;;10.30;99.90;;;10.69;100.00;97968.50;5090884;28;20798;-77
2022/12/26 04:51:33;;;;;;;5.27;2.20;;;10.30;99.90;;;10.69;100.00;97979.72;5090944;28;20970;-77
2022/12/26 04:54:02;;;;;;;6.47;2.00;;;10.40;99.90;;;10.68;100.00;97978.13;5089040;28;20562;-77
2022/12/26 04:56:32;;;;;;;5.33;1.77;;;10.40;99.90;;;10.70;100.00;97973.50;5095556;28;20981;-78
2022/12/26 04:59:02;;;;;;;5.53;2.80;;;10.30;99.90;;;10.72;100.00;97965.50;5087565;28;20512;-78
2022/12/26 05:10:01;;;;;;;3.83;2.43;;;10.30;99.90;;;10.75;100.00;97947.63;5089446;28;20453;-77
2022/12/26 05:12:31;;;;;;;6.03;3.00;;;10.40;99.90;;;10.73;100.00;97940.94;5092669;28;20519;-77
2022/12/26 05:14:59;;;;;;;3.20;2.17;;;10.30;99.90;;;10.74;100.00;97946.00;5085763;28;20694;-77
2022/12/26 05:29:02;;;;;;;3.00;2.17;;;10.40;99.90;;;10.75;100.00;97986.03;5094099;28;20549;-77
2022/12/26 05:31:32;;;;;;;6.43;2.50;;;10.40;99.90;;;10.76;100.00;97977.97;5090013;28;20486;-77
2022/12/26 05:34:06;;;;;;;3.63;2.33;;;10.40;99.90;;;10.75;100.00;97988.66;5088372;28;20455;-77
2022/12/26 05:36:42;;;;;;;3.47;2.30;;;10.40;99.90;;;10.75;100.00;97991.25;5093954;28;20487;-77
2022/12/26 05:39:11;;;;;;;3.90;1.90;;;10.30;99.90;;;10.74;100.00;98000.09;5087081;28;21394;-77
2022/12/26 05:41:41;;;;;;;2.27;2.07;;;10.30;99.90;;;10.75;100.00;98001.72;5089787;28;20495;-77
2022/12/26 05:44:11;;;;;;;3.03;2.20;;;10.30;99.90;;;10.75;100.00;97994.69;5091800;28;20501;-77
2022/12/26 05:46:41;;;;;;;3.33;1.73;;;10.40;99.90;;;10.76;100.00;97998.91;5092558;28;20490;-77
2022/12/26 05:49:10;;;;;;;4.37;2.17;;;10.30;99.90;;;10.75;100.00;98001.72;5091837;28;20492;-77
2022/12/26 05:51:41;;;;;;;2.50;1.73;;;10.30;99.90;;;10.76;100.00;98013.81;5088500;28;20475;-77
2022/12/26 05:54:11;;;;;;;4.30;2.13;;;10.30;99.90;;;10.76;100.00;98009.38;5092027;28;20463;-77
2022/12/26 05:56:40;;;;;;;9.07;2.07;;;10.30;99.90;;;10.79;100.00;97982.03;5092958;28;20466;-77
2022/12/26 05:59:16;;;;;;;7.43;2.10;;;10.40;99.90;;;10.78;100.00;97996.13;5092279;28;20965;-77
2022/12/26 06:01:47;;;;;;;2.73;2.20;;;10.40;99.90;;;10.78;100.00;97998.72;5091450;28;20475;-77
2022/12/26 06:04:17;;;;;;;2.50;2.00;;;10.40;99.90;;;10.79;100.00;97995.13;5091307;28;20517;-78
2022/12/26 06:06:48;;;;;;;26.07;12.27;;;10.30;99.90;;;10.79;100.00;98009.00;5089638;28;20460;-77
2022/12/26 06:09:19;;;;;;;6.47;2.00;;;10.40;99.90;;;10.81;100.00;98017.47;5091639;28;20475;-78
2022/12/26 06:11:49;;;;;;;4.00;2.33;;;10.50;99.90;;;10.82;100.00;98013.06;5091590;28;20476;-77
2022/12/26 06:14:18;;;;;;;4.10;2.17;;;10.50;99.90;;;10.84;100.00;97993.53;5090148;28;20551;-77
2022/12/26 06:16:49;;;;;;;10.47;5.87;;;10.50;99.90;;;10.86;100.00;98009.06;5084724;28;20471;-77
2022/12/26 06:19:18;;;;;;;2.47;1.97;;;10.50;99.90;;;10.88;100.00;97997.41;5090590;28;21007;-77
2022/12/26 06:21:49;;;;;;;5.53;2.63;;;10.50;99.90;;;10.89;100.00;97988.56;5089607;28;20459;-76
2022/12/26 06:24:18;;;;;;;4.87;3.23;;;10.60;99.90;;;10.91;100.00;97985.75;5091765;28;20525;-77
2022/12/26 06:26:48;;;;;;;3.97;1.83;;;10.60;99.90;;;10.89;100.00;97983.34;5090288;28;20465;-77
2022/12/26 06:29:19;;;;;;;3.40;1.97;;;10.50;99.90;;;10.90;100.00;97991.97;5092356;28;20877;-77
2022/12/26 06:31:49;;;;;;;1.63;1.47;;;10.60;99.90;;;10.89;100.00;97993.78;5092189;28;20494;-77
2022/12/26 06:34:18;;;;;;;3.63;1.80;;;10.50;99.90;;;10.93;100.00;97994.22;5090711;28;20957;-77
2022/12/26 06:36:49;;;;;;;6.10;2.10;;;10.60;99.90;;;10.88;100.00;98004.44;5087802;28;21052;-78
2022/12/26 06:39:18;;;;;;;2.93;1.70;;;10.50;99.90;;;10.91;100.00;98001.44;5094211;28;20957;-77
2022/12/26 06:41:48;;;;;;;3.50;2.00;;;10.50;99.90;;;10.93;100.00;98012.53;5089053;28;20478;-78
2022/12/26 06:44:17;;;;;;;3.70;2.00;;;10.60;99.90;;;10.93;100.00;98009.94;5092006;28;20543;-78
2022/12/26 06:46:47;;;;;;;4.77;2.03;;;10.60;99.90;;;10.96;100.00;98020.00;5093104;28;20460;-78
2022/12/26 06:49:18;;;;;;;3.20;2.23;;;10.60;99.90;;;10.97;100.00;98026.84;5091498;28;21224;-78
2022/12/26 06:51:49;;;;;;;3.90;2.40;;;10.70;99.90;;;10.95;100.00;98034.88;5093625;28;20487;-77
2022/12/26 06:54:19;;;;;;;2.73;2.00;;;10.60;99.90;;;10.95;100.00;98034.06;5089729;28;20444;-77
2022/12/26 06:56:49;;;;;;;5.90;2.07;;;10.60;99.90;;;10.95;100.00;98041.94;5091048;28;21016;-77
2022/12/26 06:59:18;;;;;;;3.73;2.07;;;10.60;99.90;;;10.94;100.00;98045.53;5091011;28;20550;-77
2022/12/26 07:01:47;;;;;;;9.60;2.10;;;10.60;99.90;;;10.92;100.00;98056.19;5091299;28;20524;-77
2022/12/26 07:04:17;;;;;;;8.33;2.50;;;10.50;99.90;;;10.92;100.00;98055.38;5086047;28;20588;-77
2022/12/26 07:06:49;;;;;;;6.70;2.53;;;10.50;99.90;;;10.88;100.00;98065.41;5084265;28;20554;-77
2022/12/26 07:09:19;;;;;;;9.40;2.40;;;10.40;99.90;;;10.88;100.00;98072.44;5086449;28;20552;-76
2022/12/26 07:11:51;;;;;;;11.50;2.17;;;10.40;99.90;;;10.86;100.00;98071.84;5090570;28;20546;-76
2022/12/26 07:14:21;;;;;;;5.70;2.47;;;10.50;99.90;;;10.85;100.00;98070.22;5090284;28;20555;-77
2022/12/26 07:16:51;;;;;;;3.03;1.87;;;10.50;99.90;;;10.84;100.00;98079.06;5084936;28;20467;-78
2022/12/26 07:19:20;;;;;;;5.10;2.03;;;10.40;99.90;;;10.82;100.00;98070.59;5089698;28;20465;-77
2022/12/26 07:21:50;;;;;;;2.70;1.67;;;10.40;99.90;;;10.79;100.00;98078.81;5089180;28;20462;-77
2022/12/26 07:24:22;;;;;;;13.80;1.60;;;10.40;99.90;;;10.77;100.00;98067.72;5084314;28;20613;-76
2022/12/26 07:26:52;;;;;;;3.33;1.90;;;10.30;99.90;;;10.77;100.00;98076.38;5088447;28;20460;-76
2022/12/26 07:29:21;;;;;;;2.03;1.83;;;10.40;99.90;;;10.77;100.00;98065.91;5088574;28;20475;-77
2022/12/26 07:31:51;;;;;;;5.20;1.53;;;10.30;99.90;;;10.75;100.00;98074.97;5084858;28;20495;-78
2022/12/26 07:34:21;;;;;;;6.23;1.90;;;10.30;99.90;;;10.73;100.00;98063.84;5092377;28;20462;-76
2022/12/26 07:37:01;;;;;;;2.13;1.50;;;10.30;99.90;;;10.71;100.00;98058.00;5088497;28;20485;-77
2022/12/26 07:39:30;;;;;;;1.53;1.40;;;10.30;99.90;;;10.70;100.00;98036.28;5089072;28;20452;-78
2022/12/26 07:41:59;;;;;;;5.60;1.67;;;10.20;99.90;;;10.69;100.00;98033.88;5094955;28;20458;-76
2022/12/26 07:44:30;;;;;;;4.50;1.80;;;10.20;99.90;;;10.68;100.00;98032.25;5094683;28;20493;-78
2022/12/26 07:47:01;;;;;;;5.33;2.00;;;10.20;99.90;;;10.66;100.00;98048.09;5087971;28;20495;-77
2022/12/26 07:49:30;;;;;;;3.67;1.70;;;10.10;99.90;;;10.64;100.00;98063.19;5094953;28;20466;-77
2022/12/26 07:52:01;;;;;;;1.80;1.40;;;10.10;99.90;;;10.62;100.00;98070.38;5096448;28;20490;-78
2022/12/26 07:54:31;;;;;;;5.07;1.40;;;10.10;99.90;;;10.59;100.00;98068.97;5086120;28;20524;-77
2022/12/26 07:57:00;;;;;;;2.50;1.80;;;10.00;99.90;;;10.60;100.00;98081.06;5087919;28;20458;-77
2022/12/26 07:59:52;;;;;;;3.00;1.43;;;10.10;99.90;;;10.57;100.00;98073.59;5093481;28;20533;-77
2022/12/26 08:02:22;;;;;;;6.40;3.20;;;10.10;99.90;;;10.54;100.00;98071.34;5090227;28;20466;-77
2022/12/26 08:04:59;;;;;;;4.33;2.67;;;10.00;99.90;;;10.55;100.00;98072.16;5094151;28;20564;-78
2022/12/26 08:07:31;;;;;;;2.53;2.10;;;10.00;99.90;;;10.55;100.00;98080.00;5089902;28;20467;-76
2022/12/26 08:10:02;;;;;;;2.87;1.60;;;10.00;99.90;;;10.55;100.00;98070.34;5093537;28;20512;-77
2022/12/26 08:12:45;;;;;;;3.20;1.50;;;10.10;99.90;;;10.54;100.00;98073.97;5092910;28;20462;-77
2022/12/26 08:15:16;;;;;;;3.13;1.57;;;10.00;99.90;;;10.54;100.00;98070.53;5088800;28;20470;-77
2022/12/26 08:17:49;;;;;;;1.37;1.20;;;10.00;99.90;;;10.56;100.00;98052.84;5086542;28;20479;-75
2022/12/26 08:20:29;;;;;;;2.00;1.80;;;10.10;99.90;;;10.52;100.00;98060.25;5092004;28;20521;-78
2022/12/26 08:23:01;;;;;;;2.77;1.20;;;10.10;99.90;;;10.54;100.00;98073.97;5096511;28;20525;-77
2022/12/26 08:25:31;;;;;;;2.37;1.40;;;10.20;99.90;;;10.51;100.00;98082.19;5094700;28;21090;-77
2022/12/26 08:28:02;;;;;;;3.00;1.63;;;10.10;99.90;;;10.51;100.00;98095.25;5081276;28;20460;-77
2022/12/26 08:30:32;;;;;;;4.60;1.60;;;10.20;99.90;;;10.50;100.00;98111.94;5084955;28;20551;-77
2022/12/26 08:33:01;;;;;;;1.33;1.23;;;10.10;99.90;;;10.50;100.00;98118.97;5094471;28;20477;-77
2022/12/26 08:35:29;;;;;;;3.83;1.17;;;10.10;99.90;;;10.51;100.00;98115.34;5096839;28;20493;-77
2022/12/26 08:38:03;;;;;;;1.57;1.40;;;10.10;99.90;;;10.49;100.00;98112.91;5088772;28;20482;-77
2022/12/26 08:40:33;;;;;;;1.37;1.10;;;10.00;99.90;;;10.49;100.00;98107.69;5089074;28;20460;-77
2022/12/26 08:43:13;;;;;;;2.20;1.13;;;10.00;99.90;;;10.53;100.00;98129.84;5095934;28;20464;-77
2022/12/26 08:46:04;;;;;;;2.20;1.40;;;10.10;99.90;;;10.50;100.00;98125.00;5093114;28;20835;-77
2022/12/26 08:48:33;;;;;;;2.67;1.33;;;10.00;99.90;;;10.51;100.00;98134.47;5092421;28;20470;-77
2022/12/26 08:51:07;;;;;;;1.90;1.07;;;10.00;99.90;;;10.51;100.00;98136.28;5094965;28;20516;-77
2022/12/26 08:53:40;;;;;;;2.03;1.40;;;10.10;99.90;;;10.49;100.00;98144.28;5092845;28;20456;-77
2022/12/26 08:56:17;;;;;;;2.27;1.30;;;10.00;99.90;;;10.52;100.00;98149.13;5095225;28;20460;-77
2022/12/26 08:58:47;;;;;;;1.40;1.30;;;10.00;99.90;;;10.53;100.00;98148.16;5093734;28;20467;-77
2022/12/26 09:01:19;;;;;;;1.13;1.03;;;10.10;99.90;;;10.54;100.00;98144.56;5094960;28;20493;-77
2022/12/26 09:03:52;;;;;;;1.93;1.60;;;10.10;99.90;;;10.52;100.00;98143.91;5090143;28;20458;-77
2022/12/26 09:06:23;;;;;;;10.80;1.60;;;10.10;99.90;;;10.55;100.00;98134.91;5094255;28;20483;-77
2022/12/26 09:08:54;;;;;;;1.43;1.27;;;10.10;99.90;;;10.54;100.00;98126.25;5093684;28;20495;-77
2022/12/26 09:11:26;;;;;;;1.60;1.43;;;10.10;99.90;;;10.54;100.00;98136.72;5091812;28;20447;-77
2022/12/26 09:13:56;;;;;;;2.07;1.37;;;10.10;99.90;;;10.53;100.00;98148.16;5091470;28;20546;-77
2022/12/26 09:16:28;;;;;;;1.43;1.27;;;10.10;99.90;;;10.57;100.00;98159.06;5093816;28;20479;-76
2022/12/26 09:19:06;;;;;;;1.87;1.23;;;10.20;99.90;;;10.55;100.00;98161.84;5091807;28;20463;-76
2022/12/26 09:21:36;;;;;;;1.37;1.20;;;10.20;99.90;;;10.54;100.00;98162.84;5086952;28;20696;-77
2022/12/26 09:24:12;;;;;;;2.07;1.30;;;10.00;99.90;;;10.57;100.00;98159.88;5087089;28;20554;-77
2022/12/26 09:26:42;;;;;;;4.80;1.30;;;10.20;99.90;;;10.55;100.00;98161.84;5092570;28;20455;-78
2022/12/26 09:29:13;;;;;;;1.30;1.20;;;10.20;99.90;;;10.56;100.00;98153.00;5091695;28;20966;-77
2022/12/26 09:31:43;;;;;;;2.47;1.70;;;10.20;99.90;;;10.55;100.00;98140.94;5091595;28;20468;-77
2022/12/26 09:34:13;;;;;;;2.80;1.60;;;10.10;99.90;;;10.57;100.00;98157.25;5093428;28;20514;-77
2022/12/26 09:36:43;;;;;;;1.53;1.13;;;10.20;99.90;;;10.59;100.00;98149.22;5084150;28;20536;-77
2022/12/26 09:39:13;;;;;;;2.70;2.07;;;10.20;99.90;;;10.59;100.00;98150.03;5091446;28;20455;-74
2022/12/26 09:42:20;;;;;;;6.90;2.13;;;10.20;99.90;;;10.61;100.00;98147.25;5088696;28;20469;-77
2022/12/26 09:45:00;;;;;;;1.40;1.10;;;10.20;99.90;;;10.64;100.00;98110.25;5092840;28;20849;-77
2022/12/26 09:47:34;;;;;;;1.50;1.17;;;10.20;99.90;;;10.64;100.00;98156.50;5092750;28;20981;-77
2022/12/26 09:50:14;;;;;;;3.73;1.30;;;10.20;99.90;;;10.67;100.00;98175.25;5094971;28;20479;-77
2022/12/26 09:52:50;;;;;;;2.27;1.30;;;10.30;99.90;;;10.69;100.00;98180.31;5094624;28;20452;-76
2022/12/26 09:55:37;;;;;;;1.73;1.20;;;10.30;99.90;;;10.66;100.00;98184.09;5089730;28;21092;-77
2022/12/26 09:58:19;;;;;;;1.53;1.30;;;10.30;99.90;;;10.67;100.00;98184.91;5086995;28;20971;-76
2022/12/26 10:00:53;;;;;;;2.60;1.10;;;10.20;99.90;;;10.69;100.00;98180.31;5089841;28;20471;-77
2022/12/26 10:03:25;;;;;;;2.10;1.30;;;10.20;99.90;;;10.72;100.00;98185.19;5086884;28;20501;-76
2022/12/26 10:06:14;;;;;;;1.27;1.10;;;10.30;99.90;;;10.72;100.00;98165.06;5091562;28;20925;-76
2022/12/26 10:09:26;;;;;;;2.17;1.47;;;10.40;99.90;;;10.72;100.00;98170.31;5092885;28;20467;-76
2022/12/26 10:12:21;;;;;;;4.67;1.63;;;10.30;99.90;;;10.72;100.00;98170.31;5093613;28;20833;-77
2022/12/26 10:15:01;;;;;;;3.00;1.20;;;10.40;99.90;;;10.72;100.00;98164.25;5092921;28;20944;-76
2022/12/26 10:17:41;;;;;;;2.30;1.50;;;10.30;99.90;;;10.71;100.00;98170.47;5086640;28;21287;-76
2022/12/26 10:20:28;;;;;;;2.10;1.17;;;10.30;99.90;;;10.73;100.00;98184.16;5089711;28;20506;-76
2022/12/26 10:23:32;;;;;;;2.67;1.50;;;10.30;99.90;;;10.75;100.00;98200.50;5086499;28;20500;-76
2022/12/26 10:26:12;;;;;;;1.30;1.20;;;10.30;99.90;;;10.74;100.00;98202.31;5085572;28;20562;-76
2022/12/26 10:28:51;;;;;;;8.33;1.70;;;10.30;99.90;;;10.73;100.00;98192.81;5085550;28;21708;-76
2022/12/26 10:31:32;;;;;;;3.37;1.50;;;10.30;99.90;;;10.76;100.00;98187.22;5087562;28;21066;-76
2022/12/26 10:34:10;;;;;;;1.30;1.20;;;10.40;99.90;;;10.78;100.00;98194.91;5090987;28;20550;-76
2022/12/26 10:36:46;;;;;;;8.80;1.50;;;10.40;99.90;;;10.77;100.00;98204.53;5085794;28;20847;-76
2022/12/26 10:39:23;;;;;;;2.90;1.40;;;10.30;99.90;;;10.78;100.00;98193.09;5092360;28;20562;-77
2022/12/26 10:41:58;;;;;;;2.07;1.57;;;10.30;99.90;;;10.81;100.00;98197.13;5092397;28;20632;-76
2022/12/26 10:44:29;;;;;;;3.40;1.60;;;10.40;99.90;;;10.79;100.00;98194.72;5090924;28;20450;-77
2022/12/26 10:47:28;;;;;;;1.40;1.30;;;10.40;99.90;;;10.80;100.00;98196.31;5092509;28;20955;-77
2022/12/26 10:49:58;;;;;;;3.73;1.57;;;10.30;99.90;;;10.84;100.00;98207.22;5092639;28;20506;-77
2022/12/26 10:52:34;;;;;;;2.30;1.87;;;10.50;99.90;;;10.84;100.00;98204.63;5088811;28;20983;-76
2022/12/26 10:55:03;;;;;;;1.97;1.70;;;10.40;99.90;;;10.83;100.00;98197.78;5093780;28;20461;-76
2022/12/26 10:57:55;;;;;;;2.70;1.50;;;10.40;99.90;;;10.85;100.00;98216.72;5094559;28;20494;-77
2022/12/26 11:00:29;;;;;;;3.80;1.80;;;10.50;99.90;;;10.86;100.00;98210.50;5092657;28;21063;-77
2022/12/26 11:03:07;;;;;;;6.67;1.40;;;10.50;99.90;;;10.83;100.00;98198.56;5092615;28;20502;-76
2022/12/26 11:05:40;;;;;;;8.33;1.67;;;10.50;99.90;;;10.86;100.00;98207.88;5085850;28;20501;-77
2022/12/26 11:08:38;;;;;;;2.30;1.50;;;10.50;99.90;;;10.88;100.00;98211.09;5088228;28;20466;-77
2022/12/26 11:11:20;;;;;;;1.67;1.57;;;10.50;99.90;;;10.85;100.00;98204.44;5086653;28;20509;-77
2022/12/26 11:13:56;;;;;;;1.97;1.50;;;10.50;99.90;;;10.82;100.00;98206.63;5091336;28;20490;-77
2022/12/26 11:16:36;;;;;;;2.73;1.70;;;10.50;99.90;;;10.86;100.00;98200.03;5088369;28;20520;-77
2022/12/26 11:19:07;;;;;;;4.37;1.40;;;10.50;99.90;;;10.87;100.00;98199.00;5092589;28;20463;-76
2022/12/26 11:21:37;;;;;;;6.13;1.90;;;10.50;99.90;;;10.89;100.00;98202.28;5091534;28;20459;-77
2022/12/26 11:24:19;;;;;;;1.67;1.57;;;10.50;99.90;;;10.91;100.00;98203.69;5093769;28;20546;-76
2022/12/26 11:26:48;;;;;;;3.67;1.80;;;10.50;99.90;;;10.91;100.00;98205.50;5092449;28;20479;-77
2022/12/26 11:29:21;;;;;;;1.63;1.40;;;10.60;99.90;;;10.90;100.00;98198.63;5092094;28;20453;-76
2022/12/26 11:31:57;;;;;;;8.37;3.80;;;10.50;99.90;;;10.90;100.00;98199.44;5091756;28;20866;-76
2022/12/26 11:34:34;;;;;;;4.90;1.77;;;10.50;99.90;;;10.91;100.00;98200.25;5088873;28;20455;-76
2022/12/26 11:37:07;;;;;;;2.40;1.03;;;10.50;99.90;;;10.91;100.00;98202.88;5091942;28;21230;-76
2022/12/26 11:39:39;;;;;;;4.07;1.50;;;10.60;99.90;;;10.90;100.00;98188.16;5090126;28;20455;-76
2022/12/26 11:42:13;;;;;;;1.93;1.47;;;10.60;99.90;;;10.93;100.00;98183.38;5088000;28;20448;-76
2022/12/26 11:44:48;;;;;;;2.27;1.30;;;10.60;99.90;;;10.94;100.00;98184.19;5089856;28;21171;-76
2022/12/26 11:47:22;;;;;;;11.50;1.50;;;10.60;99.90;;;10.88;100.00;98185.75;5091717;28;20573;-76
2022/12/26 11:50:00;;;;;;;2.23;0.83;;;10.50;99.90;;;10.92;100.00;98180.97;5093155;28;20520;-76
2022/12/26 11:52:40;;;;;;;1.40;1.03;;;10.50;99.90;;;10.95;100.00;98170.13;5089411;28;20472;-76
2022/12/26 11:55:32;;;;;;;1.50;1.17;;;10.60;99.90;;;10.97;100.00;98161.09;5089231;28;20486;-76
2022/12/26 11:58:18;;;;;;;6.20;1.30;;;10.60;99.90;;;11.00;100.00;98160.72;5090825;28;20491;-76
2022/12/26 12:01:16;;;;;;;2.83;1.27;;;10.60;99.90;;;11.01;100.00;98164.97;5077615;28;20459;-76
2022/12/26 12:03:50;;;;;;;13.07;6.27;;;10.70;99.90;;;11.02;100.00;98165.78;5085846;28;20454;-77
2022/12/26 12:07:03;;;;;;;6.90;2.53;;;10.70;99.90;;;11.05;100.00;98163.59;5086271;28;21113;-77
2022/12/26 12:09:44;;;;;;;3.60;1.67;;;10.70;99.90;;;11.05;100.00;98153.13;5083308;28;20853;-76
2022/12/26 12:12:22;;;;;;;2.30;1.70;;;10.70;99.90;;;11.04;100.00;98158.53;5087798;28;20490;-77
2022/12/26 12:15:03;;;;;;;3.03;1.30;;;10.70;99.90;;;11.04;100.00;98166.38;5086010;28;20484;-76
2022/12/26 12:17:48;;;;;;;4.10;2.03;;;10.70;99.90;;;11.05;100.00;98165.38;5086474;28;20534;-76
2022/12/26 12:20:39;;;;;;;1.73;1.10;;;10.70;99.90;;;11.05;100.00;98158.34;5084582;28;20525;-77
2022/12/26 12:23:36;;;;;;;3.20;1.53;;;10.70;99.90;;;11.08;100.00;98151.94;5088215;28;20844;-76
2022/12/26 12:26:12;;;;;;;1.80;1.47;;;10.70;99.90;;;11.06;100.00;98162.59;5087953;28;20474;-77
2022/12/26 12:29:20;;;;;;;2.90;1.30;;;10.70;99.90;;;11.07;100.00;98164.19;5086949;28;20525;-77
2022/12/26 12:32:08;;;;;;;2.50;1.53;;;10.60;99.90;;;11.08;100.00;98165.00;5086953;28;20471;-77
2022/12/26 12:35:07;;;;;;;1.40;1.30;;;10.80;99.90;;;11.08;100.00;98157.97;5092448;28;20460;-77
2022/12/26 12:38:06;;;;;;;2.27;1.23;;;10.70;99.90;;;11.09;100.00;98148.31;5090998;28;20463;-77
2022/12/26 12:40:50;;;;;;;1.20;1.10;;;10.80;99.90;;;11.10;100.00;98148.16;5089233;28;20520;-76
2022/12/26 12:43:28;;;;;;;3.10;1.27;;;10.70;99.90;;;11.13;100.00;98140.91;5089580;28;21049;-77
2022/12/26 12:46:09;;;;;;;3.80;1.43;;;10.80;99.90;;;11.13;100.00;98146.97;5090808;28;20502;-77
2022/12/26 12:49:06;;;;;;;2.23;1.30;;;10.80;99.90;;;11.15;100.00;98149.38;5093262;28;20564;-76
2022/12/26 12:51:45;;;;;;;2.13;1.30;;;10.80;99.90;;;11.15;100.00;98158.03;5093014;28;20463;-77
2022/12/26 12:55:10;;;;;;;2.67;1.23;;;10.80;99.90;;;11.14;100.00;98155.63;5093857;28;20454;-76